Impacts TAF Board
For situational awareness. Not to be used for flight planning purposes.
IDs:

KHBG - Hattiesburg/Chain Mu, MS, US

Issued at 1200 UTC 21 Feb 2019
Updated at 1355 UTC 21 Feb 2019
Potential Impact None Slight Moderate High
Time1353Z 21/14Z 21/15Z 21/16Z 21/17Z 21/18Z 21/19Z 21/20Z 21/21Z 21/22Z 21/23Z 22/00Z 22/01Z 22/02Z>>
Type OBS PRVL PRVL PRVL PRVL PRVL PRVL PRVL PRVL PRVL PRVL PRVL PRVL PRVL
VIS 5 5 >6 >6 >6 >6 >6 >6 >6 >6 >6 >6 >6 >6
CIG 4 4 8 8 8 15 15 15 15 15 15 15 15 15
Cover OVC OVC OVC OVC OVC BKN BKN BKN BKN BKN BKN BKN BKN BKN
FltCat LIFR LIFR IFR IFR IFR MVFR MVFR MVFR MVFR MVFR MVFR MVFR MVFR MVFR
WX BR BR VCSH VCSH VCSH VCSH VCSH VCSH VCSH VCSH VCSH VCSH VCSH VCSH VCSH
WDir 70 40 90 90 90 120 120 120 120 120 120 120 120 120
WSpd 5 5 5 5 5 8 8 8 8 8 8 8 8 8
WGst -- -- -- -- -- -- -- -- -- -- -- -- -- --
Raw TAF
KHBG 211200Z 2112/2212 04005KT 5SM BR VCSH OVC004
  FM211500 09005KT P6SM VCSH BKN008 OVC015
  FM211800 12008KT P6SM VCSH BKN015


Raw METAR
KHBG 211353Z AUTO 07005KT 5SM BR OVC004 14/13 A3005 RMK AO2 SLP174 T01390133
KHBG 211253Z AUTO 02003KT 4SM BR OVC004 13/13 A3006 RMK AO2 SLP177 T01330128
KHBG 211153Z AUTO 36004KT 6SM BR OVC004 13/13 A3004 RMK AO2 RAE1054 SLP171 P0001 60001 70139 T01330128 10144 20133 53010
KHBG 211134Z AUTO 01004KT 7SM OVC004 13/13 A3004 RMK AO2 RAE1054 P0001 T01330128
KHBG 211053Z AUTO 01005KT 5SM -RA BR OVC005 13/13 A3002 RMK AO2 RAB05E09B44 CIG 003V006 SLP165 P0000 T01330128

METAR Board
Radar Display
Forecast Discussion
For situational awareness. Not to be used for flight planning purposes.